Zim Rio Grande — 9HNV9 — position and weather

sailwx.info

Track history (hours):
 
Tides and Currents Weather Stations Pressure Air Temp Water Temp Dewpoint Dewpoint Depression Visibility Wind Speed Wind Dir Waves Ship Positions

Zim Rio Grande

Last reported at 2018-May-15 12:11 UTC. Time now 2018-May-22 17:33 UTC.
Position N 48°33' W 132°47'.

Length 260 m; draft 10.5 m.

Type: Ship (hazmat cat A). MMSI: 249253000.

Date/timePositionNaut miles runAvg speedWind from/ knotsBaromVisibWave heightAir tempDewpointWater temp
2018-May-15 12:11N 48°33' W 132°47'411.6
2018-May-15 11:51N 48°32' W 132°42'411.5
2018-May-15 11:30N 48°30' W 132°36'1711.9
2018-May-15 10:04N 48°30' W 132°11'2311.8
2018-May-15 08:05N 48°30' W 131°35'111.5
2018-May-15 08:00N 48°30' W 131°34'13112.0
2018-May-14 21:03N 48°31' W 128°16'012.3
2018-May-14 21:00N 48°31' W 128°16'611.9
2018-May-14 20:30N 48°31' W 128°07'811.9
2018-May-14 19:51N 48°32' W 127°55'412.1
2018-May-14 19:30N 48°32' W 127°49'612.2
2018-May-14 19:00N 48°32' W 127°39'812.1
2018-May-14 18:19N 48°32' W 127°27'2 5.1
2018-May-14 17:58N 48°32' W 127°24'4 8.0
2018-May-14 17:26N 48°32' W 127°18'512.3
2018-May-14 17:00N 48°32' W 127°10'612.1
2018-May-14 16:29N 48°32' W 127°00'712.2
2018-May-14 15:56N 48°32' W 126°50'512.2
2018-May-14 15:30N 48°32' W 126°42'612.4
2018-May-14 15:00N 48°32' W 126°33'612.4
2018-May-14 14:30N 48°31' W 126°23'612.2
2018-May-14 14:00N 48°31' W 126°14'612.2
2018-May-14 13:30N 48°31' W 126°05'612.1
2018-May-14 13:00N 48°31' W 125°56'612.4
2018-May-14 12:30N 48°31' W 125°46'612.6
2018-May-14 12:00N 48°31' W 125°37'612.6
2018-May-14 11:30N 48°31' W 125°27'611.9
2018-May-14 11:00N 48°31' W 125°18'611.7
2018-May-14 10:30N 48°31' W 125°10'612.6
2018-May-14 10:00N 48°31' W 125°00'612.6
2018-May-14 09:30N 48°31' W 124°51'612.0
2018-May-14 09:00N 48°30' W 124°42'612.0
2018-May-14 08:30N 48°28' W 124°33'612.1
2018-May-14 08:00N 48°25' W 124°25'612.5
2018-May-14 07:30N 48°23' W 124°16'612.3
2018-May-14 07:00N 48°21' W 124°08'612.3
2018-May-14 06:29N 48°18' W 123°59'612.5
2018-May-14 06:00N 48°17' W 123°50'1710.8
2018-May-14 04:25N 48°22' W 123°25'4 9.9
2018-May-14 04:00N 48°23' W 123°19'611.7
2018-May-14 03:30N 48°27' W 123°13'815.9
2018-May-14 03:00N 48°35' W 123°14'814.9
2018-May-14 02:30N 48°42' W 123°15'714.2
2018-May-14 01:59N 48°46' W 123°05'510.8
2018-May-14 01:31N 48°51' W 123°02'713.1
2018-May-14 01:00N 48°56' W 123°07'4 8.6
2018-May-14 00:30N 49°00' W 123°10'1 0.5
2018-May-13 22:52N 49°01' W 123°09'0 0.0
2018-May-13 22:29N 49°01' W 123°09'0 0.0
2018-May-13 21:40N 49°01' W 123°09'0 0.1
2018-May-13 21:28N 49°01' W 123°09'0 0.0
2018-May-13 20:58N 49°01' W 123°09'0 0.0
2018-May-13 20:28N 49°01' W 123°09'0 0.0
2018-May-13 19:58N 49°01' W 123°09'0 0.0
2018-May-13 19:28N 49°01' W 123°09'0 0.0
2018-May-13 18:58N 49°01' W 123°09'0 0.0
2018-May-13 18:22N 49°01' W 123°09'0 0.0
2018-May-13 17:52N 49°01' W 123°09'0 0.0
2018-May-13 15:01N 49°01' W 123°09'0 0.0
2018-May-13 14:55N 49°01' W 123°09'0 0.0
2018-May-13 14:28N 49°01' W 123°09'0 0.0
2018-May-13 13:52N 49°01' W 123°09'0 0.0
2018-May-13 12:46N 49°01' W 123°09'0 0.0
2018-May-13 12:28N 49°01' W 123°09'0 0.0
2018-May-13 10:58N 49°01' W 123°09'0 0.0
2018-May-13 10:28N 49°01' W 123°09'0 0.0
2018-May-13 09:52N 49°01' W 123°09'0 0.0
2018-May-13 09:19N 49°01' W 123°09'0 0.0
2018-May-13 08:58N 49°01' W 123°09'0 0.0
2018-May-13 08:25N 49°01' W 123°09'0 0.0
2018-May-13 07:46N 49°01' W 123°09'0 0.0
2018-May-13 07:16N 49°01' W 123°09'0 0.0
2018-May-13 06:46N 49°01' W 123°09'0 0.0
2018-May-13 02:22N 49°01' W 123°09'0 0.0
2018-May-12 20:04N 49°01' W 123°09'0 0.0
2018-May-12 19:46N 49°01' W 123°09'0 0.0
2018-May-12 19:22N 49°01' W 123°09'0 0.0
2018-May-12 18:58N 49°01' W 123°09'0 0.0
2018-May-12 18:28N 49°01' W 123°09'0 0.0
2018-May-12 17:52N 49°01' W 123°09'0 0.0
2018-May-12 17:28N 49°01' W 123°09'0 0.0
2018-May-12 16:58N 49°01' W 123°09'0 0.0
2018-May-12 16:28N 49°01' W 123°09'0 0.0
2018-May-12 15:58N 49°01' W 123°09'0 0.0
2018-May-12 15:28N 49°01' W 123°09'0 0.0
2018-May-12 14:46N 49°01' W 123°09'0 0.0
2018-May-12 14:28N 49°01' W 123°09'0 0.0
2018-May-12 13:55N 49°01' W 123°09'0 0.0
2018-May-12 13:25N 49°01' W 123°09'0 0.0
2018-May-12 12:58N 49°01' W 123°09'0 0.0
2018-May-12 12:28N 49°01' W 123°09'0 0.0
2018-May-12 11:55N 49°01' W 123°09'0 0.0
2018-May-12 11:22N 49°01' W 123°09'0 0.1
2018-May-12 10:58N 49°01' W 123°09'0 0.1
2018-May-12 10:22N 49°01' W 123°09'0 0.0
2018-May-12 09:55N 49°01' W 123°09'0 0.0
2018-May-12 09:22N 49°01' W 123°09'0 0.0
2018-May-12 08:58N 49°01' W 123°09'0 0.0
2018-May-12 08:28N 49°01' W 123°09'0 0.0
2018-May-12 07:58N 49°01' W 123°09'0 0.0
2018-May-12 07:28N 49°01' W 123°09'0 0.0
2018-May-12 06:52N 49°01' W 123°09'0 0.0
2018-May-12 06:28N 49°01' W 123°09'0 0.0
2018-May-12 05:58N 49°01' W 123°09'0 0.0
2018-May-12 05:28N 49°01' W 123°09'0 0.0
2018-May-12 04:55N 49°01' W 123°09'0 0.0
2018-May-12 04:28N 49°01' W 123°09'0 0.0
2018-May-12 03:58N 49°01' W 123°09'0 0.0
2018-May-12 03:28N 49°01' W 123°09'0 0.0
2018-May-12 02:58N 49°01' W 123°09'0 0.0
2018-May-12 02:28N 49°01' W 123°09'0 0.0
2018-May-12 01:58N 49°01' W 123°09'0 0.0
2018-May-12 01:28N 49°01' W 123°09'0 0.0
2018-May-12 00:58N 49°01' W 123°09'0 0.0
2018-May-12 00:28N 49°01' W 123°09'0 0.0
2018-May-11 23:58N 49°01' W 123°09'0 0.0
2018-May-11 23:28N 49°01' W 123°09'0 0.0
2018-May-11 22:58N 49°01' W 123°09'0 0.0
2018-May-11 22:28N 49°01' W 123°09'0 0.1
2018-May-11 21:58N 49°01' W 123°09'0 0.0
2018-May-11 21:28N 49°01' W 123°09'0 0.1
2018-May-11 20:58N 49°01' W 123°09'0 0.0
2018-May-11 20:28N 49°01' W 123°09'0 0.0
2018-May-11 19:58N 49°01' W 123°09'0 0.0
2018-May-11 19:28N 49°01' W 123°09'0 0.0
2018-May-11 18:58N 49°01' W 123°09'0 0.1
2018-May-11 18:28N 49°01' W 123°09'0 0.1
2018-May-11 17:58N 49°01' W 123°09'0 0.0
2018-May-11 17:28N 49°01' W 123°09'0 0.0
2018-May-11 16:58N 49°01' W 123°09'0 0.0
2018-May-11 16:28N 49°01' W 123°09'0 0.0
2018-May-11 15:58N 49°01' W 123°09'0 0.0
2018-May-11 15:28N 49°01' W 123°09'0 0.0
2018-May-11 14:58N 49°01' W 123°09'0 0.0
2018-May-11 14:28N 49°01' W 123°09'0 0.0
2018-May-11 13:13N 49°01' W 123°09'0 0.0
2018-May-11 12:58N 49°01' W 123°09'0 0.5
2018-May-11 12:30N 49°01' W 123°09'3 5.6
2018-May-11 12:00N 48°58' W 123°10'714.4
2018-May-11 11:30N 48°52' W 123°03'814.8
2018-May-11 10:56N 48°44' W 123°06'717.0
2018-May-11 10:30N 48°40' W 123°15'1019.8
2018-May-11 10:00N 48°30' W 123°11'816.6
2018-May-11 09:30N 48°23' W 123°16'612.1
2018-May-11 09:00N 48°20' W 123°24'1515.4
2018-May-11 08:03N 48°13' W 123°44'518.7
2018-May-11 07:47N 48°13' W 123°51'517.6
2018-May-11 07:30N 48°14' W 123°58'1020.1
2018-May-11 07:00N 48°19' W 124°12'1121.8
2018-May-11 06:30N 48°23' W 124°27'1021.5
2018-May-11 06:01N 48°28' W 124°41'1121.5
2018-May-11 05:31N 48°28' W 124°57'1121.0
2018-May-11 05:00N 48°28' W 125°13'1020.7
2018-May-11 04:31N 48°28' W 125°29'1120.7
2018-May-11 04:00N 48°28' W 125°45'1020.6
2018-May-11 03:30N 48°28' W 126°00'1020.5
2018-May-11 03:00N 48°28' W 126°16'1120.7
2018-May-11 02:29N 48°29' W 126°32'  
Track history (hours):
 
Tides and Currents Weather Stations Pressure Air Temp Water Temp Dewpoint Dewpoint Depression Visibility Wind Speed Wind Dir Waves Ship Positions

Zim Rio Grande

Last reported at 2018-May-15 12:11 UTC. Time now 2018-May-22 17:34 UTC.
Position N 48°33' W 132°47'.

Length 260 m; draft 10.5 m.

Type: Ship (hazmat cat A). MMSI: 249253000.

Date/timePositionNaut miles runAvg speedWind from/ knotsBaromVisibWave heightAir tempDewpointWater temp
2018-May-15 12:11N 48°33' W 132°47'411.6
2018-May-15 11:51N 48°32' W 132°42'411.5
2018-May-15 11:30N 48°30' W 132°36'1711.9
2018-May-15 10:04N 48°30' W 132°11'2311.8
2018-May-15 08:05N 48°30' W 131°35'111.5
2018-May-15 08:00N 48°30' W 131°34'13112.0
2018-May-14 21:03N 48°31' W 128°16'012.3
2018-May-14 21:00N 48°31' W 128°16'611.9
2018-May-14 20:30N 48°31' W 128°07'811.9
2018-May-14 19:51N 48°32' W 127°55'412.1
2018-May-14 19:30N 48°32' W 127°49'612.2
2018-May-14 19:00N 48°32' W 127°39'812.1
2018-May-14 18:19N 48°32' W 127°27'2 5.1
2018-May-14 17:58N 48°32' W 127°24'4 8.0
2018-May-14 17:26N 48°32' W 127°18'512.3
2018-May-14 17:00N 48°32' W 127°10'612.1
2018-May-14 16:29N 48°32' W 127°00'712.2
2018-May-14 15:56N 48°32' W 126°50'512.2
2018-May-14 15:30N 48°32' W 126°42'612.4
2018-May-14 15:00N 48°32' W 126°33'612.4
2018-May-14 14:30N 48°31' W 126°23'612.2
2018-May-14 14:00N 48°31' W 126°14'612.2
2018-May-14 13:30N 48°31' W 126°05'612.1
2018-May-14 13:00N 48°31' W 125°56'612.4
2018-May-14 12:30N 48°31' W 125°46'612.6
2018-May-14 12:00N 48°31' W 125°37'612.6
2018-May-14 11:30N 48°31' W 125°27'611.9
2018-May-14 11:00N 48°31' W 125°18'611.7
2018-May-14 10:30N 48°31' W 125°10'612.6
2018-May-14 10:00N 48°31' W 125°00'612.6
2018-May-14 09:30N 48°31' W 124°51'612.0
2018-May-14 09:00N 48°30' W 124°42'612.0
2018-May-14 08:30N 48°28' W 124°33'612.1
2018-May-14 08:00N 48°25' W 124°25'612.5
2018-May-14 07:30N 48°23' W 124°16'612.3
2018-May-14 07:00N 48°21' W 124°08'612.3
2018-May-14 06:29N 48°18' W 123°59'612.5
2018-May-14 06:00N 48°17' W 123°50'1710.8
2018-May-14 04:25N 48°22' W 123°25'4 9.9
2018-May-14 04:00N 48°23' W 123°19'611.7
2018-May-14 03:30N 48°27' W 123°13'815.9
2018-May-14 03:00N 48°35' W 123°14'814.9
2018-May-14 02:30N 48°42' W 123°15'714.2
2018-May-14 01:59N 48°46' W 123°05'510.8
2018-May-14 01:31N 48°51' W 123°02'713.1
2018-May-14 01:00N 48°56' W 123°07'4 8.6
2018-May-14 00:30N 49°00' W 123°10'1 0.5
2018-May-13 22:52N 49°01' W 123°09'0 0.0
2018-May-13 22:29N 49°01' W 123°09'0 0.0
2018-May-13 21:40N 49°01' W 123°09'0 0.1
2018-May-13 21:28N 49°01' W 123°09'0 0.0
2018-May-13 20:58N 49°01' W 123°09'0 0.0
2018-May-13 20:28N 49°01' W 123°09'0 0.0
2018-May-13 19:58N 49°01' W 123°09'0 0.0
2018-May-13 19:28N 49°01' W 123°09'0 0.0
2018-May-13 18:58N 49°01' W 123°09'0 0.0
2018-May-13 18:22N 49°01' W 123°09'0 0.0
2018-May-13 17:52N 49°01' W 123°09'0 0.0
2018-May-13 15:01N 49°01' W 123°09'0 0.0
2018-May-13 14:55N 49°01' W 123°09'0 0.0
2018-May-13 14:28N 49°01' W 123°09'0 0.0
2018-May-13 13:52N 49°01' W 123°09'0 0.0
2018-May-13 12:46N 49°01' W 123°09'0 0.0
2018-May-13 12:28N 49°01' W 123°09'0 0.0
2018-May-13 10:58N 49°01' W 123°09'0 0.0
2018-May-13 10:28N 49°01' W 123°09'0 0.0
2018-May-13 09:52N 49°01' W 123°09'0 0.0
2018-May-13 09:19N 49°01' W 123°09'0 0.0
2018-May-13 08:58N 49°01' W 123°09'0 0.0
2018-May-13 08:25N 49°01' W 123°09'0 0.0
2018-May-13 07:46N 49°01' W 123°09'0 0.0
2018-May-13 07:16N 49°01' W 123°09'0 0.0
2018-May-13 06:46N 49°01' W 123°09'0 0.0
2018-May-13 02:22N 49°01' W 123°09'0 0.0
2018-May-12 20:04N 49°01' W 123°09'0 0.0
2018-May-12 19:46N 49°01' W 123°09'0 0.0
2018-May-12 19:22N 49°01' W 123°09'0 0.0
2018-May-12 18:58N 49°01' W 123°09'0 0.0
2018-May-12 18:28N 49°01' W 123°09'0 0.0
2018-May-12 17:52N 49°01' W 123°09'0 0.0
2018-May-12 17:28N 49°01' W 123°09'0 0.0
2018-May-12 16:58N 49°01' W 123°09'0 0.0
2018-May-12 16:28N 49°01' W 123°09'0 0.0
2018-May-12 15:58N 49°01' W 123°09'0 0.0
2018-May-12 15:28N 49°01' W 123°09'0 0.0
2018-May-12 14:46N 49°01' W 123°09'0 0.0
2018-May-12 14:28N 49°01' W 123°09'0 0.0
2018-May-12 13:55N 49°01' W 123°09'0 0.0
2018-May-12 13:25N 49°01' W 123°09'0 0.0
2018-May-12 12:58N 49°01' W 123°09'0 0.0
2018-May-12 12:28N 49°01' W 123°09'0 0.0
2018-May-12 11:55N 49°01' W 123°09'0 0.0
2018-May-12 11:22N 49°01' W 123°09'0 0.1
2018-May-12 10:58N 49°01' W 123°09'0 0.1
2018-May-12 10:22N 49°01' W 123°09'0 0.0
2018-May-12 09:55N 49°01' W 123°09'0 0.0
2018-May-12 09:22N 49°01' W 123°09'0 0.0
2018-May-12 08:58N 49°01' W 123°09'0 0.0
2018-May-12 08:28N 49°01' W 123°09'0 0.0
2018-May-12 07:58N 49°01' W 123°09'0 0.0
2018-May-12 07:28N 49°01' W 123°09'0 0.0
2018-May-12 06:52N 49°01' W 123°09'0 0.0
2018-May-12 06:28N 49°01' W 123°09'0 0.0
2018-May-12 05:58N 49°01' W 123°09'0 0.0
2018-May-12 05:28N 49°01' W 123°09'0 0.0
2018-May-12 04:55N 49°01' W 123°09'0 0.0
2018-May-12 04:28N 49°01' W 123°09'0 0.0
2018-May-12 03:58N 49°01' W 123°09'0 0.0
2018-May-12 03:28N 49°01' W 123°09'0 0.0
2018-May-12 02:58N 49°01' W 123°09'0 0.0
2018-May-12 02:28N 49°01' W 123°09'0 0.0
2018-May-12 01:58N 49°01' W 123°09'0 0.0
2018-May-12 01:28N 49°01' W 123°09'0 0.0
2018-May-12 00:58N 49°01' W 123°09'0 0.0
2018-May-12 00:28N 49°01' W 123°09'0 0.0
2018-May-11 23:58N 49°01' W 123°09'0 0.0
2018-May-11 23:28N 49°01' W 123°09'0 0.0
2018-May-11 22:58N 49°01' W 123°09'0 0.0
2018-May-11 22:28N 49°01' W 123°09'0 0.1
2018-May-11 21:58N 49°01' W 123°09'0 0.0
2018-May-11 21:28N 49°01' W 123°09'0 0.1
2018-May-11 20:58N 49°01' W 123°09'0 0.0
2018-May-11 20:28N 49°01' W 123°09'0 0.0
2018-May-11 19:58N 49°01' W 123°09'0 0.0
2018-May-11 19:28N 49°01' W 123°09'0 0.0
2018-May-11 18:58N 49°01' W 123°09'0 0.1
2018-May-11 18:28N 49°01' W 123°09'0 0.1
2018-May-11 17:58N 49°01' W 123°09'0 0.0
2018-May-11 17:28N 49°01' W 123°09'0 0.0
2018-May-11 16:58N 49°01' W 123°09'0 0.0
2018-May-11 16:28N 49°01' W 123°09'0 0.0
2018-May-11 15:58N 49°01' W 123°09'0 0.0
2018-May-11 15:28N 49°01' W 123°09'0 0.0
2018-May-11 14:58N 49°01' W 123°09'0 0.0
2018-May-11 14:28N 49°01' W 123°09'0 0.0
2018-May-11 13:13N 49°01' W 123°09'0 0.0
2018-May-11 12:58N 49°01' W 123°09'0 0.5
2018-May-11 12:30N 49°01' W 123°09'3 5.6
2018-May-11 12:00N 48°58' W 123°10'714.4
2018-May-11 11:30N 48°52' W 123°03'814.8
2018-May-11 10:56N 48°44' W 123°06'717.0
2018-May-11 10:30N 48°40' W 123°15'1019.8
2018-May-11 10:00N 48°30' W 123°11'816.6
2018-May-11 09:30N 48°23' W 123°16'612.1
2018-May-11 09:00N 48°20' W 123°24'1515.4
2018-May-11 08:03N 48°13' W 123°44'518.7
2018-May-11 07:47N 48°13' W 123°51'517.6
2018-May-11 07:30N 48°14' W 123°58'1020.1
2018-May-11 07:00N 48°19' W 124°12'1121.8
2018-May-11 06:30N 48°23' W 124°27'1021.5
2018-May-11 06:01N 48°28' W 124°41'1121.5
2018-May-11 05:31N 48°28' W 124°57'1121.0
2018-May-11 05:00N 48°28' W 125°13'1020.7
2018-May-11 04:31N 48°28' W 125°29'1120.7
2018-May-11 04:00N 48°28' W 125°45'1020.6
2018-May-11 03:30N 48°28' W 126°00'1020.5
2018-May-11 03:00N 48°28' W 126°16'1120.7
2018-May-11 02:29N 48°29' W 126°32'  

Dump ship's entire track history